sensor_id;sensor_type;location;lat;lon;timestamp;temperature;humidity
15426;DHT22;7812;50.072;7.036;2022-08-11T00:01:14;15.80;99.90
15426;DHT22;7812;50.072;7.036;2022-08-11T00:03:46;15.80;99.90
15426;DHT22;7812;50.072;7.036;2022-08-11T00:06:14;15.70;99.90
15426;DHT22;7812;50.072;7.036;2022-08-11T00:08:49;15.70;99.90
15426;DHT22;7812;50.072;7.036;2022-08-11T00:11:15;15.70;99.90
15426;DHT22;7812;50.072;7.036;2022-08-11T00:13:44;15.70;99.90
15426;DHT22;7812;50.072;7.036;2022-08-11T00:16:21;15.70;99.90
15426;DHT22;7812;50.072;7.036;2022-08-11T00:18:49;15.60;99.90
15426;DHT22;7812;50.072;7.036;2022-08-11T00:21:16;15.60;99.90
15426;DHT22;7812;50.072;7.036;2022-08-11T00:23:45;15.60;99.90
15426;DHT22;7812;50.072;7.036;2022-08-11T00:26:12;15.60;99.90
15426;DHT22;7812;50.072;7.036;2022-08-11T00:28:39;15.60;99.90
15426;DHT22;7812;50.072;7.036;2022-08-11T00:31:10;15.60;99.90
15426;DHT22;7812;50.072;7.036;2022-08-11T00:33:42;15.50;99.90
15426;DHT22;7812;50.072;7.036;2022-08-11T00:36:10;15.50;99.90
15426;DHT22;7812;50.072;7.036;2022-08-11T00:38:39;15.40;99.90
15426;DHT22;7812;50.072;7.036;2022-08-11T01:12:04;15.00;99.90
15426;DHT22;7812;50.072;7.036;2022-08-11T01:20:24;14.90;99.90
15426;DHT22;7812;50.072;7.036;2022-08-11T01:45:57;14.50;99.90
15426;DHT22;7812;50.072;7.036;2022-08-11T01:56:52;14.50;99.90
15426;DHT22;7812;50.072;7.036;2022-08-11T01:59:31;14.60;99.90
15426;DHT22;7812;50.072;7.036;2022-08-11T02:04:58;14.40;99.90
15426;DHT22;7812;50.072;7.036;2022-08-11T02:13:15;14.30;99.90
15426;DHT22;7812;50.072;7.036;2022-08-11T02:15:50;14.30;99.90
15426;DHT22;7812;50.072;7.036;2022-08-11T02:18:52;14.30;99.90
15426;DHT22;7812;50.072;7.036;2022-08-11T02:21:49;14.10;99.90
15426;DHT22;7812;50.072;7.036;2022-08-11T02:24:46;14.10;99.90
15426;DHT22;7812;50.072;7.036;2022-08-11T02:27:21;14.00;99.90
15426;DHT22;7812;50.072;7.036;2022-08-11T02:30:06;14.00;99.90
15426;DHT22;7812;50.072;7.036;2022-08-11T02:38:54;14.00;99.90
15426;DHT22;7812;50.072;7.036;2022-08-11T02:41:40;14.00;99.90
15426;DHT22;7812;50.072;7.036;2022-08-11T02:44:40;14.10;99.90
15426;DHT22;7812;50.072;7.036;2022-08-11T02:47:08;14.10;99.90
15426;DHT22;7812;50.072;7.036;2022-08-11T02:49:49;14.00;99.90
15426;DHT22;7812;50.072;7.036;2022-08-11T02:52:35;14.00;99.90
15426;DHT22;7812;50.072;7.036;2022-08-11T02:58:59;13.90;99.90
15426;DHT22;7812;50.072;7.036;2022-08-11T03:01:19;13.70;99.90
15426;DHT22;7812;50.072;7.036;2022-08-11T03:04:05;13.70;99.90
15426;DHT22;7812;50.072;7.036;2022-08-11T03:09:45;13.60;99.90
15426;DHT22;7812;50.072;7.036;2022-08-11T03:12:23;13.50;99.90
15426;DHT22;7812;50.072;7.036;2022-08-11T03:15:27;13.50;99.90
15426;DHT22;7812;50.072;7.036;2022-08-11T03:21:40;13.50;99.90
15426;DHT22;7812;50.072;7.036;2022-08-11T03:24:14;13.50;99.90
15426;DHT22;7812;50.072;7.036;2022-08-11T03:27:17;13.50;99.90
15426;DHT22;7812;50.072;7.036;2022-08-11T03:47:56;13.40;99.90
15426;DHT22;7812;50.072;7.036;2022-08-11T04:10:27;13.10;99.90
15426;DHT22;7812;50.072;7.036;2022-08-11T04:47:29;13.00;99.90
15426;DHT22;7812;50.072;7.036;2022-08-11T04:55:41;13.30;99.90
15426;DHT22;7812;50.072;7.036;2022-08-11T05:08:21;13.10;99.90
15426;DHT22;7812;50.072;7.036;2022-08-11T05:13:50;13.30;99.90
15426;DHT22;7812;50.072;7.036;2022-08-11T05:16:53;13.40;99.90
15426;DHT22;7812;50.072;7.036;2022-08-11T05:19:44;13.50;99.90
15426;DHT22;7812;50.072;7.036;2022-08-11T05:22:30;13.40;99.90
15426;DHT22;7812;50.072;7.036;2022-08-11T05:25:19;13.30;99.90
15426;DHT22;7812;50.072;7.036;2022-08-11T05:28:28;13.40;99.90
15426;DHT22;7812;50.072;7.036;2022-08-11T05:31:15;13.40;99.90
15426;DHT22;7812;50.072;7.036;2022-08-11T05:34:11;13.50;99.90
15426;DHT22;7812;50.072;7.036;2022-08-11T05:37:04;13.90;99.90
15426;DHT22;7812;50.072;7.036;2022-08-11T05:39:37;14.40;99.90
15426;DHT22;7812;50.072;7.036;2022-08-11T05:42:24;14.70;99.90
15426;DHT22;7812;50.072;7.036;2022-08-11T05:45:12;15.40;99.90
15426;DHT22;7812;50.072;7.036;2022-08-11T05:47:58;16.00;99.90
15426;DHT22;7812;50.072;7.036;2022-08-11T05:50:50;16.60;99.90
15426;DHT22;7812;50.072;7.036;2022-08-11T05:53:43;16.60;99.90
15426;DHT22;7812;50.072;7.036;2022-08-11T05:56:28;16.80;99.90
15426;DHT22;7812;50.072;7.036;2022-08-11T05:58:56;17.20;99.90
15426;DHT22;7812;50.072;7.036;2022-08-11T06:01:27;17.80;99.90
15426;DHT22;7812;50.072;7.036;2022-08-11T06:03:57;18.40;99.90
15426;DHT22;7812;50.072;7.036;2022-08-11T06:06:59;18.90;99.90
15426;DHT22;7812;50.072;7.036;2022-08-11T06:09:34;19.40;99.90
15426;DHT22;7812;50.072;7.036;2022-08-11T06:12:06;19.70;99.90
15426;DHT22;7812;50.072;7.036;2022-08-11T06:14:34;20.00;99.90
15426;DHT22;7812;50.072;7.036;2022-08-11T06:17:05;20.30;99.90
15426;DHT22;7812;50.072;7.036;2022-08-11T06:19:38;20.70;99.90
15426;DHT22;7812;50.072;7.036;2022-08-11T06:22:07;21.00;99.90
15426;DHT22;7812;50.072;7.036;2022-08-11T06:24:35;21.20;99.90
15426;DHT22;7812;50.072;7.036;2022-08-11T06:27:03;21.90;99.90
15426;DHT22;7812;50.072;7.036;2022-08-11T06:29:32;22.30;99.90
15426;DHT22;7812;50.072;7.036;2022-08-11T06:32:00;23.10;99.90
15426;DHT22;7812;50.072;7.036;2022-08-11T06:41:23;24.40;99.90
15426;DHT22;7812;50.072;7.036;2022-08-11T06:43:51;24.70;99.90
15426;DHT22;7812;50.072;7.036;2022-08-11T06:46:34;24.80;99.90
15426;DHT22;7812;50.072;7.036;2022-08-11T06:49:06;24.80;99.90
15426;DHT22;7812;50.072;7.036;2022-08-11T06:51:53;25.40;99.90
15426;DHT22;7812;50.072;7.036;2022-08-11T06:54:21;26.00;99.90
15426;DHT22;7812;50.072;7.036;2022-08-11T06:56:47;26.20;99.90
15426;DHT22;7812;50.072;7.036;2022-08-11T06:59:33;26.50;99.90
15426;DHT22;7812;50.072;7.036;2022-08-11T07:02:27;26.80;99.90
15426;DHT22;7812;50.072;7.036;2022-08-11T07:13:51;28.40;99.90
15426;DHT22;7812;50.072;7.036;2022-08-11T07:16:38;29.20;99.70
15426;DHT22;7812;50.072;7.036;2022-08-11T07:19:07;29.50;98.10
15426;DHT22;7812;50.072;7.036;2022-08-11T07:21:52;29.60;97.70
15426;DHT22;7812;50.072;7.036;2022-08-11T07:25:00;29.80;96.80
15426;DHT22;7812;50.072;7.036;2022-08-11T07:27:57;30.70;96.00
15426;DHT22;7812;50.072;7.036;2022-08-11T07:30:43;31.70;94.70
15426;DHT22;7812;50.072;7.036;2022-08-11T07:33:10;32.00;93.30
15426;DHT22;7812;50.072;7.036;2022-08-11T07:35:48;32.30;93.10
15426;DHT22;7812;50.072;7.036;2022-08-11T07:38:21;33.20;91.90
15426;DHT22;7812;50.072;7.036;2022-08-11T07:40:48;33.90;90.20
15426;DHT22;7812;50.072;7.036;2022-08-11T07:43:14;34.00;87.70
15426;DHT22;7812;50.072;7.036;2022-08-11T07:45:45;33.80;88.00
15426;DHT22;7812;50.072;7.036;2022-08-11T07:48:30;34.60;86.30
15426;DHT22;7812;50.072;7.036;2022-08-11T07:51:18;34.10;85.80
15426;DHT22;7812;50.072;7.036;2022-08-11T07:54:05;33.50;82.90
15426;DHT22;7812;50.072;7.036;2022-08-11T07:56:34;34.30;82.50
15426;DHT22;7812;50.072;7.036;2022-08-11T07:59:05;35.20;81.60
15426;DHT22;7812;50.072;7.036;2022-08-11T08:01:49;33.70;77.70
15426;DHT22;7812;50.072;7.036;2022-08-11T08:04:34;33.40;77.30
15426;DHT22;7812;50.072;7.036;2022-08-11T08:07:20;33.00;76.70
15426;DHT22;7812;50.072;7.036;2022-08-11T08:10:08;33.20;75.70
15426;DHT22;7812;50.072;7.036;2022-08-11T08:12:54;32.30;75.90
15426;DHT22;7812;50.072;7.036;2022-08-11T08:15:39;32.20;76.20
15426;DHT22;7812;50.072;7.036;2022-08-11T08:18:24;31.60;75.10
15426;DHT22;7812;50.072;7.036;2022-08-11T08:20:50;31.30;76.20
15426;DHT22;7812;50.072;7.036;2022-08-11T08:23:21;31.00;76.90
15426;DHT22;7812;50.072;7.036;2022-08-11T08:25:59;31.80;76.30
15426;DHT22;7812;50.072;7.036;2022-08-11T08:28:26;32.00;75.70
15426;DHT22;7812;50.072;7.036;2022-08-11T08:30:52;32.40;75.00
15426;DHT22;7812;50.072;7.036;2022-08-11T08:33:30;32.70;75.00
15426;DHT22;7812;50.072;7.036;2022-08-11T08:36:02;34.20;73.80
15426;DHT22;7812;50.072;7.036;2022-08-11T08:38:47;34.50;72.90
15426;DHT22;7812;50.072;7.036;2022-08-11T08:41:18;33.10;72.80
15426;DHT22;7812;50.072;7.036;2022-08-11T08:43:49;34.10;72.60
15426;DHT22;7812;50.072;7.036;2022-08-11T08:46:18;34.00;72.10
15426;DHT22;7812;50.072;7.036;2022-08-11T08:48:46;34.00;71.70
15426;DHT22;7812;50.072;7.036;2022-08-11T08:51:13;34.10;72.80
15426;DHT22;7812;50.072;7.036;2022-08-11T08:54:18;35.10;71.00
15426;DHT22;7812;50.072;7.036;2022-08-11T08:56:45;35.40;70.60
15426;DHT22;7812;50.072;7.036;2022-08-11T08:59:13;34.50;69.70
15426;DHT22;7812;50.072;7.036;2022-08-11T09:01:46;35.60;70.90
15426;DHT22;7812;50.072;7.036;2022-08-11T09:04:14;37.30;69.10
15426;DHT22;7812;50.072;7.036;2022-08-11T09:06:41;38.40;67.20
15426;DHT22;7812;50.072;7.036;2022-08-11T09:09:10;38.00;67.30
15426;DHT22;7812;50.072;7.036;2022-08-11T09:11:41;38.50;65.10
15426;DHT22;7812;50.072;7.036;2022-08-11T09:17:16;36.60;64.00
15426;DHT22;7812;50.072;7.036;2022-08-11T09:19:44;35.90;64.80
15426;DHT22;7812;50.072;7.036;2022-08-11T09:22:11;34.70;65.60
15426;DHT22;7812;50.072;7.036;2022-08-11T09:24:55;36.00;64.90
15426;DHT22;7812;50.072;7.036;2022-08-11T09:27:41;35.50;64.00
15426;DHT22;7812;50.072;7.036;2022-08-11T09:30:07;35.50;63.60
15426;DHT22;7812;50.072;7.036;2022-08-11T09:32:37;36.40;63.10
15426;DHT22;7812;50.072;7.036;2022-08-11T09:35:04;36.30;62.00
15426;DHT22;7812;50.072;7.036;2022-08-11T09:37:30;35.70;62.60
15426;DHT22;7812;50.072;7.036;2022-08-11T09:40:17;37.00;61.90
15426;DHT22;7812;50.072;7.036;2022-08-11T09:42:58;34.90;60.50
15426;DHT22;7812;50.072;7.036;2022-08-11T09:45:49;35.00;61.50
15426;DHT22;7812;50.072;7.036;2022-08-11T09:48:19;33.90;61.20
15426;DHT22;7812;50.072;7.036;2022-08-11T09:50:57;34.90;61.70
15426;DHT22;7812;50.072;7.036;2022-08-11T09:53:26;33.30;61.70
15426;DHT22;7812;50.072;7.036;2022-08-11T09:55:52;33.70;61.60
15426;DHT22;7812;50.072;7.036;2022-08-11T09:58:18;34.00;61.50
15426;DHT22;7812;50.072;7.036;2022-08-11T10:00:48;34.70;60.40
15426;DHT22;7812;50.072;7.036;2022-08-11T10:03:26;34.30;61.30
15426;DHT22;7812;50.072;7.036;2022-08-11T10:05:55;35.20;60.80
15426;DHT22;7812;50.072;7.036;2022-08-11T10:08:42;35.50;58.00
15426;DHT22;7812;50.072;7.036;2022-08-11T10:11:11;32.90;59.10
15426;DHT22;7812;50.072;7.036;2022-08-11T10:13:42;31.20;60.00
15426;DHT22;7812;50.072;7.036;2022-08-11T10:16:31;31.30;60.90
15426;DHT22;7812;50.072;7.036;2022-08-11T10:19:01;33.50;61.20
15426;DHT22;7812;50.072;7.036;2022-08-11T10:24:04;35.50;58.20
15426;DHT22;7812;50.072;7.036;2022-08-11T10:26:49;37.00;58.20
15426;DHT22;7812;50.072;7.036;2022-08-11T10:29:38;34.90;57.80
15426;DHT22;7812;50.072;7.036;2022-08-11T10:32:25;33.90;58.40
15426;DHT22;7812;50.072;7.036;2022-08-11T10:35:12;33.40;59.80
15426;DHT22;7812;50.072;7.036;2022-08-11T10:37:41;35.50;59.10
15426;DHT22;7812;50.072;7.036;2022-08-11T10:40:19;35.80;58.90
15426;DHT22;7812;50.072;7.036;2022-08-11T10:42:49;34.20;59.60
15426;DHT22;7812;50.072;7.036;2022-08-11T10:45:35;35.00;59.20
15426;DHT22;7812;50.072;7.036;2022-08-11T10:48:22;35.20;60.00
15426;DHT22;7812;50.072;7.036;2022-08-11T10:50:50;36.70;58.70
15426;DHT22;7812;50.072;7.036;2022-08-11T10:53:37;37.70;58.20
15426;DHT22;7812;50.072;7.036;2022-08-11T10:56:21;39.70;57.60
15426;DHT22;7812;50.072;7.036;2022-08-11T10:59:08;40.00;57.00
15426;DHT22;7812;50.072;7.036;2022-08-11T11:01:44;36.80;56.00
15426;DHT22;7812;50.072;7.036;2022-08-11T11:04:15;35.80;57.40
15426;DHT22;7812;50.072;7.036;2022-08-11T11:07:10;36.20;57.30
15426;DHT22;7812;50.072;7.036;2022-08-11T11:09:48;36.20;57.70
15426;DHT22;7812;50.072;7.036;2022-08-11T11:12:35;36.60;56.20
15426;DHT22;7812;50.072;7.036;2022-08-11T11:15:22;35.00;56.90
15426;DHT22;7812;50.072;7.036;2022-08-11T11:18:28;34.40;55.90
15426;DHT22;7812;50.072;7.036;2022-08-11T11:21:16;33.30;56.50
15426;DHT22;7812;50.072;7.036;2022-08-11T11:26:37;33.20;56.90
15426;DHT22;7812;50.072;7.036;2022-08-11T11:32:36;34.30;56.60
15426;DHT22;7812;50.072;7.036;2022-08-11T11:37:56;33.40;56.00
15426;DHT22;7812;50.072;7.036;2022-08-11T11:40:23;32.60;56.50
15426;DHT22;7812;50.072;7.036;2022-08-11T11:42:51;33.60;56.20
15426;DHT22;7812;50.072;7.036;2022-08-11T11:45:22;33.40;56.40
15426;DHT22;7812;50.072;7.036;2022-08-11T11:47:50;34.50;55.90
15426;DHT22;7812;50.072;7.036;2022-08-11T11:50:22;35.70;55.40
15426;DHT22;7812;50.072;7.036;2022-08-11T11:52:52;33.90;55.50
15426;DHT22;7812;50.072;7.036;2022-08-11T11:55:23;32.50;56.40
15426;DHT22;7812;50.072;7.036;2022-08-11T11:57:54;33.20;57.30
15426;DHT22;7812;50.072;7.036;2022-08-11T12:00:40;33.10;56.30
15426;DHT22;7812;50.072;7.036;2022-08-11T12:03:24;34.20;56.00
15426;DHT22;7812;50.072;7.036;2022-08-11T12:05:51;34.80;55.50
15426;DHT22;7812;50.072;7.036;2022-08-11T12:08:19;34.40;55.70
15426;DHT22;7812;50.072;7.036;2022-08-11T12:10:57;33.90;55.70
15426;DHT22;7812;50.072;7.036;2022-08-11T12:13:45;33.40;56.00
15426;DHT22;7812;50.072;7.036;2022-08-11T12:16:13;32.90;56.80
15426;DHT22;7812;50.072;7.036;2022-08-11T12:18:41;33.20;56.30
15426;DHT22;7812;50.072;7.036;2022-08-11T12:21:09;33.20;56.50
15426;DHT22;7812;50.072;7.036;2022-08-11T12:23:36;34.60;56.10
15426;DHT22;7812;50.072;7.036;2022-08-11T12:26:22;32.80;56.10
15426;DHT22;7812;50.072;7.036;2022-08-11T12:29:09;33.60;56.40
15426;DHT22;7812;50.072;7.036;2022-08-11T12:31:37;33.00;56.30
15426;DHT22;7812;50.072;7.036;2022-08-11T12:34:08;33.00;56.50
15426;DHT22;7812;50.072;7.036;2022-08-11T12:36:40;32.50;57.00
15426;DHT22;7812;50.072;7.036;2022-08-11T12:39:09;32.10;56.70
15426;DHT22;7812;50.072;7.036;2022-08-11T12:41:37;32.60;57.10
15426;DHT22;7812;50.072;7.036;2022-08-11T12:44:25;32.90;56.50
15426;DHT22;7812;50.072;7.036;2022-08-11T12:47:13;31.90;57.50
15426;DHT22;7812;50.072;7.036;2022-08-11T12:49:44;33.40;56.70
15426;DHT22;7812;50.072;7.036;2022-08-11T12:52:34;34.60;56.20
15426;DHT22;7812;50.072;7.036;2022-08-11T12:55:21;32.70;56.10
15426;DHT22;7812;50.072;7.036;2022-08-11T12:58:09;32.60;56.80
15426;DHT22;7812;50.072;7.036;2022-08-11T13:00:45;33.30;56.50
15426;DHT22;7812;50.072;7.036;2022-08-11T13:03:31;32.00;56.90
15426;DHT22;7812;50.072;7.036;2022-08-11T13:06:17;31.90;56.90
15426;DHT22;7812;50.072;7.036;2022-08-11T13:08:44;32.30;57.30
15426;DHT22;7812;50.072;7.036;2022-08-11T13:11:11;32.80;56.40
15426;DHT22;7812;50.072;7.036;2022-08-11T13:13:57;32.00;57.00
15426;DHT22;7812;50.072;7.036;2022-08-11T13:16:29;31.70;56.90
15426;DHT22;7812;50.072;7.036;2022-08-11T13:19:01;31.40;57.30
15426;DHT22;7812;50.072;7.036;2022-08-11T13:21:27;31.50;57.80
15426;DHT22;7812;50.072;7.036;2022-08-11T13:23:54;31.70;57.30
15426;DHT22;7812;50.072;7.036;2022-08-11T13:26:24;30.90;57.20
15426;DHT22;7812;50.072;7.036;2022-08-11T13:28:50;30.70;57.60
15426;DHT22;7812;50.072;7.036;2022-08-11T13:31:17;31.30;57.80
15426;DHT22;7812;50.072;7.036;2022-08-11T13:33:47;32.10;57.40
15426;DHT22;7812;50.072;7.036;2022-08-11T13:36:20;32.50;57.00
15426;DHT22;7812;50.072;7.036;2022-08-11T13:38:47;32.50;57.20
15426;DHT22;7812;50.072;7.036;2022-08-11T13:41:13;33.00;57.30
15426;DHT22;7812;50.072;7.036;2022-08-11T13:43:58;33.00;57.00
15426;DHT22;7812;50.072;7.036;2022-08-11T13:46:26;32.40;57.00
15426;DHT22;7812;50.072;7.036;2022-08-11T13:48:55;32.40;57.20
15426;DHT22;7812;50.072;7.036;2022-08-11T13:51:23;31.50;57.70
15426;DHT22;7812;50.072;7.036;2022-08-11T13:54:11;31.10;58.00
15426;DHT22;7812;50.072;7.036;2022-08-11T13:56:44;30.90;58.20
15426;DHT22;7812;50.072;7.036;2022-08-11T13:59:12;30.70;58.10
15426;DHT22;7812;50.072;7.036;2022-08-11T14:01:43;30.90;58.00
15426;DHT22;7812;50.072;7.036;2022-08-11T14:04:12;30.40;58.50
15426;DHT22;7812;50.072;7.036;2022-08-11T14:06:45;30.30;59.50
15426;DHT22;7812;50.072;7.036;2022-08-11T14:09:25;30.40;59.00
15426;DHT22;7812;50.072;7.036;2022-08-11T14:11:56;30.80;58.80
15426;DHT22;7812;50.072;7.036;2022-08-11T14:14:42;30.90;59.20
15426;DHT22;7812;50.072;7.036;2022-08-11T14:17:13;31.20;58.80
15426;DHT22;7812;50.072;7.036;2022-08-11T14:19:43;31.40;58.80
15426;DHT22;7812;50.072;7.036;2022-08-11T14:22:14;31.30;58.40
15426;DHT22;7812;50.072;7.036;2022-08-11T14:25:02;31.00;58.80
15426;DHT22;7812;50.072;7.036;2022-08-11T14:27:28;31.00;58.80
15426;DHT22;7812;50.072;7.036;2022-08-11T14:29:56;31.20;59.60
15426;DHT22;7812;50.072;7.036;2022-08-11T14:32:23;31.30;59.00
15426;DHT22;7812;50.072;7.036;2022-08-11T14:34:50;31.50;58.90
15426;DHT22;7812;50.072;7.036;2022-08-11T14:37:20;31.50;58.90
15426;DHT22;7812;50.072;7.036;2022-08-11T14:39:50;31.50;59.00
15426;DHT22;7812;50.072;7.036;2022-08-11T14:42:18;31.20;58.00
15426;DHT22;7812;50.072;7.036;2022-08-11T14:45:09;31.30;60.40
15426;DHT22;7812;50.072;7.036;2022-08-11T14:48:01;31.20;59.00
15426;DHT22;7812;50.072;7.036;2022-08-11T14:50:31;30.70;59.00
15426;DHT22;7812;50.072;7.036;2022-08-11T14:53:03;30.70;59.10
15426;DHT22;7812;50.072;7.036;2022-08-11T14:55:34;30.80;59.30
15426;DHT22;7812;50.072;7.036;2022-08-11T14:58:20;30.50;60.20
15426;DHT22;7812;50.072;7.036;2022-08-11T15:00:59;30.20;59.80
15426;DHT22;7812;50.072;7.036;2022-08-11T15:03:28;30.10;60.40
15426;DHT22;7812;50.072;7.036;2022-08-11T15:05:58;29.80;60.80
15426;DHT22;7812;50.072;7.036;2022-08-11T15:08:32;30.10;61.50
15426;DHT22;7812;50.072;7.036;2022-08-11T15:11:18;30.50;61.10
15426;DHT22;7812;50.072;7.036;2022-08-11T15:14:07;30.70;60.00
15426;DHT22;7812;50.072;7.036;2022-08-11T15:16:37;30.70;59.50
15426;DHT22;7812;50.072;7.036;2022-08-11T15:19:23;30.90;59.50
15426;DHT22;7812;50.072;7.036;2022-08-11T15:21:49;30.80;59.90
15426;DHT22;7812;50.072;7.036;2022-08-11T15:24:34;30.50;59.30
15426;DHT22;7812;50.072;7.036;2022-08-11T15:27:11;30.10;59.80
15426;DHT22;7812;50.072;7.036;2022-08-11T15:29:57;29.70;59.90
15426;DHT22;7812;50.072;7.036;2022-08-11T15:32:43;29.80;60.50
15426;DHT22;7812;50.072;7.036;2022-08-11T15:35:29;29.90;60.10
15426;DHT22;7812;50.072;7.036;2022-08-11T15:38:15;30.10;60.00
15426;DHT22;7812;50.072;7.036;2022-08-11T15:40:42;30.40;60.00
15426;DHT22;7812;50.072;7.036;2022-08-11T15:43:43;30.40;60.10
15426;DHT22;7812;50.072;7.036;2022-08-11T15:46:31;30.20;59.70
15426;DHT22;7812;50.072;7.036;2022-08-11T15:49:31;30.20;59.80
15426;DHT22;7812;50.072;7.036;2022-08-11T15:52:06;30.10;59.70
15426;DHT22;7812;50.072;7.036;2022-08-11T15:54:34;29.80;59.70
15426;DHT22;7812;50.072;7.036;2022-08-11T15:57:04;30.00;59.90
15426;DHT22;7812;50.072;7.036;2022-08-11T15:59:36;30.00;59.90
15426;DHT22;7812;50.072;7.036;2022-08-11T16:02:23;30.00;60.00
15426;DHT22;7812;50.072;7.036;2022-08-11T16:04:50;30.10;60.10
15426;DHT22;7812;50.072;7.036;2022-08-11T16:07:19;30.00;59.90
15426;DHT22;7812;50.072;7.036;2022-08-11T16:10:09;29.90;59.50
15426;DHT22;7812;50.072;7.036;2022-08-11T16:12:51;29.80;59.50
15426;DHT22;7812;50.072;7.036;2022-08-11T16:15:51;29.60;59.50
15426;DHT22;7812;50.072;7.036;2022-08-11T16:18:44;29.60;59.90
15426;DHT22;7812;50.072;7.036;2022-08-11T16:21:32;29.40;59.90
15426;DHT22;7812;50.072;7.036;2022-08-11T16:23:59;29.60;60.10
15426;DHT22;7812;50.072;7.036;2022-08-11T16:26:27;29.50;59.90
15426;DHT22;7812;50.072;7.036;2022-08-11T16:28:55;29.60;60.10
15426;DHT22;7812;50.072;7.036;2022-08-11T16:31:23;29.50;60.20
15426;DHT22;7812;50.072;7.036;2022-08-11T16:33:51;29.50;60.30
15426;DHT22;7812;50.072;7.036;2022-08-11T16:36:21;29.60;60.20
15426;DHT22;7812;50.072;7.036;2022-08-11T16:39:08;29.50;60.10
15426;DHT22;7812;50.072;7.036;2022-08-11T16:41:38;29.60;60.00
15426;DHT22;7812;50.072;7.036;2022-08-11T16:44:24;29.50;60.30
15426;DHT22;7812;50.072;7.036;2022-08-11T16:47:12;29.60;61.00
15426;DHT22;7812;50.072;7.036;2022-08-11T16:49:47;29.60;60.10
15426;DHT22;7812;50.072;7.036;2022-08-11T16:52:14;29.50;60.90
15426;DHT22;7812;50.072;7.036;2022-08-11T16:54:41;29.40;60.30
15426;DHT22;7812;50.072;7.036;2022-08-11T16:57:25;29.40;60.60
15426;DHT22;7812;50.072;7.036;2022-08-11T17:00:12;29.40;60.60
15426;DHT22;7812;50.072;7.036;2022-08-11T17:02:45;29.40;60.10
15426;DHT22;7812;50.072;7.036;2022-08-11T17:05:34;29.30;60.20
15426;DHT22;7812;50.072;7.036;2022-08-11T17:08:28;29.20;60.30
15426;DHT22;7812;50.072;7.036;2022-08-11T17:11:13;29.20;60.50
15426;DHT22;7812;50.072;7.036;2022-08-11T17:14:00;29.10;60.50
15426;DHT22;7812;50.072;7.036;2022-08-11T17:16:35;29.10;60.90
15426;DHT22;7812;50.072;7.036;2022-08-11T17:19:09;29.20;61.00
15426;DHT22;7812;50.072;7.036;2022-08-11T17:21:43;29.20;61.20
15426;DHT22;7812;50.072;7.036;2022-08-11T17:24:30;29.10;61.30
15426;DHT22;7812;50.072;7.036;2022-08-11T17:26:57;29.10;61.40
15426;DHT22;7812;50.072;7.036;2022-08-11T17:29:43;29.00;62.30
15426;DHT22;7812;50.072;7.036;2022-08-11T17:32:17;29.00;61.60
15426;DHT22;7812;50.072;7.036;2022-08-11T17:35:07;29.00;61.50
15426;DHT22;7812;50.072;7.036;2022-08-11T17:37:52;28.90;61.30
15426;DHT22;7812;50.072;7.036;2022-08-11T17:40:21;28.80;61.40
15426;DHT22;7812;50.072;7.036;2022-08-11T17:42:53;28.70;61.70
15426;DHT22;7812;50.072;7.036;2022-08-11T17:45:39;28.70;61.30
15426;DHT22;7812;50.072;7.036;2022-08-11T17:48:27;28.70;61.50
15426;DHT22;7812;50.072;7.036;2022-08-11T17:51:00;28.60;61.80
15426;DHT22;7812;50.072;7.036;2022-08-11T17:53:31;28.50;61.70
15426;DHT22;7812;50.072;7.036;2022-08-11T17:56:19;28.50;61.80
15426;DHT22;7812;50.072;7.036;2022-08-11T17:59:06;28.40;61.80
15426;DHT22;7812;50.072;7.036;2022-08-11T18:01:53;28.40;61.90
15426;DHT22;7812;50.072;7.036;2022-08-11T18:04:21;28.30;61.90
15426;DHT22;7812;50.072;7.036;2022-08-11T18:06:48;28.20;61.90
15426;DHT22;7812;50.072;7.036;2022-08-11T18:09:19;28.20;62.30
15426;DHT22;7812;50.072;7.036;2022-08-11T18:12:06;28.00;63.70
15426;DHT22;7812;50.072;7.036;2022-08-11T18:14:53;27.70;63.30
15426;DHT22;7812;50.072;7.036;2022-08-11T18:17:39;27.70;63.00
15426;DHT22;7812;50.072;7.036;2022-08-11T18:20:24;27.70;63.30
15426;DHT22;7812;50.072;7.036;2022-08-11T18:23:15;27.60;63.20
15426;DHT22;7812;50.072;7.036;2022-08-11T18:26:04;27.60;63.70
15426;DHT22;7812;50.072;7.036;2022-08-11T18:28:53;27.40;64.20
15426;DHT22;7812;50.072;7.036;2022-08-11T18:31:53;27.30;64.20
15426;DHT22;7812;50.072;7.036;2022-08-11T18:34:40;27.10;65.80
15426;DHT22;7812;50.072;7.036;2022-08-11T18:37:31;26.90;66.80
15426;DHT22;7812;50.072;7.036;2022-08-11T18:40:21;26.70;66.30
15426;DHT22;7812;50.072;7.036;2022-08-11T18:43:09;26.40;68.30
15426;DHT22;7812;50.072;7.036;2022-08-11T18:46:01;26.20;68.20
15426;DHT22;7812;50.072;7.036;2022-08-11T18:48:50;26.10;69.50
15426;DHT22;7812;50.072;7.036;2022-08-11T18:51:37;25.90;69.90
15426;DHT22;7812;50.072;7.036;2022-08-11T18:54:23;25.70;70.80
15426;DHT22;7812;50.072;7.036;2022-08-11T18:57:08;25.50;71.80
15426;DHT22;7812;50.072;7.036;2022-08-11T18:59:58;25.20;71.10
15426;DHT22;7812;50.072;7.036;2022-08-11T19:02:44;25.00;72.00
15426;DHT22;7812;50.072;7.036;2022-08-11T19:05:32;24.90;73.40
15426;DHT22;7812;50.072;7.036;2022-08-11T19:08:18;24.80;73.60
15426;DHT22;7812;50.072;7.036;2022-08-11T19:11:05;24.50;73.50
15426;DHT22;7812;50.072;7.036;2022-08-11T19:13:51;24.30;73.90
15426;DHT22;7812;50.072;7.036;2022-08-11T19:16:37;24.10;74.70
15426;DHT22;7812;50.072;7.036;2022-08-11T19:19:22;24.00;76.40
15426;DHT22;7812;50.072;7.036;2022-08-11T19:22:27;23.90;76.60
15426;DHT22;7812;50.072;7.036;2022-08-11T19:25:14;23.70;77.00
15426;DHT22;7812;50.072;7.036;2022-08-11T19:28:01;23.50;76.80
15426;DHT22;7812;50.072;7.036;2022-08-11T19:30:48;23.30;77.10
15426;DHT22;7812;50.072;7.036;2022-08-11T19:33:33;23.10;76.80
15426;DHT22;7812;50.072;7.036;2022-08-11T19:36:19;23.00;76.90
15426;DHT22;7812;50.072;7.036;2022-08-11T19:39:05;22.90;78.50
15426;DHT22;7812;50.072;7.036;2022-08-11T19:41:50;22.80;78.90
15426;DHT22;7812;50.072;7.036;2022-08-11T19:44:39;22.70;79.00
15426;DHT22;7812;50.072;7.036;2022-08-11T19:47:24;22.60;80.80
15426;DHT22;7812;50.072;7.036;2022-08-11T19:50:10;22.50;80.70
15426;DHT22;7812;50.072;7.036;2022-08-11T19:52:55;22.40;80.60
15426;DHT22;7812;50.072;7.036;2022-08-11T19:55:40;22.20;80.90
15426;DHT22;7812;50.072;7.036;2022-08-11T19:58:25;22.10;81.30
15426;DHT22;7812;50.072;7.036;2022-08-11T20:01:10;22.00;81.60
15426;DHT22;7812;50.072;7.036;2022-08-11T20:03:55;21.90;84.00
15426;DHT22;7812;50.072;7.036;2022-08-11T20:06:39;21.80;84.40
15426;DHT22;7812;50.072;7.036;2022-08-11T20:09:25;21.70;86.10
15426;DHT22;7812;50.072;7.036;2022-08-11T20:12:10;21.60;85.90
15426;DHT22;7812;50.072;7.036;2022-08-11T20:14:54;21.40;86.70
15426;DHT22;7812;50.072;7.036;2022-08-11T20:17:39;21.30;88.40
15426;DHT22;7812;50.072;7.036;2022-08-11T20:20:26;21.30;88.90
15426;DHT22;7812;50.072;7.036;2022-08-11T20:23:13;21.20;89.50
15426;DHT22;7812;50.072;7.036;2022-08-11T20:25:59;21.10;90.10
15426;DHT22;7812;50.072;7.036;2022-08-11T20:28:44;21.00;90.80
15426;DHT22;7812;50.072;7.036;2022-08-11T20:31:32;20.90;91.20